VTSS/HDY METAR and TAF weather

Enter ICAO airport designator
Station Type Date Time Source
VTSS METAR 2024/04/17 17:30 UTC NOAA

VTSS 171730Z 25003KT 150V290 9999 FEW020 27/25 Q1009 NOSIG


Station Type Date Time Source
VTSS Decoded METAR 2024/04/17 17:30 UTC NOAA

Hat Yai, Thailand (VTSS) 06-55N 100-26E 35M
Apr 17, 2024 - 01:30 PM EDT / 2024.04.17 1730 UTC
Wind: from the WSW (250 degrees) at 3 MPH (3 KT) (direction variable):0
Visibility: greater than 7 mile(s):0
Sky conditions: mostly clear
Temperature: 80 F (27 C)
Dew Point: 77 F (25 C)
Relative Humidity: 88%
Pressure (altimeter): 29.80 in. Hg (1009 hPa)
ob: VTSS 171730Z 25003KT 150V290 9999 FEW020 27/25 Q1009 NOSIG
cycle: 17

Station Type Date Time Source
VTSS TAF 2024/04/17 18:36 UTC NOAA